Terminal Aerodrome Forecast
Issued by NWS

Home | Current Version | Previous Version | Text Only | Print | Product List | Glossary On
Versions: 1 2 3 4 5 6 7 8 9 10 11 12 13 14 15 16 17 18
000
FTUS46 KLOX 230900 AAA
TAFWJF
TAF AMD
KWJF 230938Z 2310/2406 26012KT P6SM SKC
     FM232100 24018G28KT P6SM SKC
     FM240500 24017KT P6SM SKC=

USA.gov is the U.S. government's official web portal to all federal, state and local government web resources and services.